Time;durP1;ratioP1;P1;durP2;ratioP2;P2;SDS_P1;SDS_P2;PMS_P1;PMS_P2;Temp;Humidity;BMP_temperature;BMP_pressure;BME280_temperature;BME280_humidity;BME280_pressure;Samples;Min_cycle;Max_cycle;Signal;HPM_P1;HPM_P2
2022/04/15 00:02:02;;;;;;;;;;;26.00;50.20;;;;;;5094691;28;901;-36
2022/04/15 00:04:31;;;;;;;;;;;26.00;50.20;;;;;;5093395;28;1028;-36
2022/04/15 00:06:58;;;;;;;;;;;26.00;50.30;;;;;;5095350;28;1008;-37
2022/04/15 00:09:25;;;;;;;;;;;26.00;50.30;;;;;;5097551;28;1002;-37
2022/04/15 00:11:53;;;;;;;;;;;26.00;50.20;;;;;;5097274;28;1007;-38
2022/04/15 00:14:20;;;;;;;;;;;26.00;50.20;;;;;;5097338;28;1084;-40
2022/04/15 00:16:47;;;;;;;;;;;26.00;50.20;;;;;;5095307;28;1430;-40
2022/04/15 00:19:14;;;;;;;;;;;26.00;50.00;;;;;;5093509;28;651;-41
2022/04/15 00:21:41;;;;;;;;;;;26.00;50.10;;;;;;5093525;28;1984;-44
2022/04/15 00:24:07;;;;;;;;;;;26.00;50.10;;;;;;5094384;28;976;-42
2022/04/15 00:26:35;;;;;;;;;;;26.00;50.00;;;;;;5094014;28;996;-40
2022/04/15 00:29:06;;;;;;;;;;;26.00;50.00;;;;;;5093935;28;1046;-43
2022/04/15 00:31:33;;;;;;;;;;;26.00;50.00;;;;;;5092849;28;1008;-37
2022/04/15 00:34:00;;;;;;;;;;;26.00;50.00;;;;;;5093123;28;1020;-38
2022/04/15 00:36:27;;;;;;;;;;;26.00;49.90;;;;;;5094237;28;969;-38
2022/04/15 00:38:53;;;;;;;;;;;26.00;49.90;;;;;;5093940;28;1024;-41
2022/04/15 00:41:20;;;;;;;;;;;26.00;49.90;;;;;;5094264;28;1977;-39
2022/04/15 00:43:47;;;;;;;;;;;26.00;49.90;;;;;;5093381;28;959;-38
2022/04/15 00:46:15;;;;;;;;;;;26.00;49.90;;;;;;5093885;28;1785;-39
2022/04/15 00:48:41;;;;;;;;;;;26.00;49.80;;;;;;5093401;28;897;-39
2022/04/15 00:51:08;;;;;;;;;;;26.00;49.80;;;;;;5093063;28;1016;-38
2022/04/15 00:53:35;;;;;;;;;;;26.00;49.70;;;;;;5093186;28;885;-39
2022/04/15 00:56:03;;;;;;;;;;;26.00;49.70;;;;;;5091850;28;1050;-39
2022/04/15 00:58:31;;;;;;;;;;;26.00;49.60;;;;;;5093348;28;712;-40
2022/04/15 01:00:58;;;;;;;;;;;26.10;49.60;;;;;;5093176;28;1909;-38
2022/04/15 01:03:26;;;;;;;;;;;26.00;49.50;;;;;;5094362;28;928;-38
2022/04/15 01:05:55;;;;;;;;;;;26.00;49.50;;;;;;5092275;28;1006;-38
2022/04/15 01:08:24;;;;;;;;;;;26.00;49.70;;;;;;5092297;28;826;-38
2022/04/15 01:10:53;;;;;;;;;;;26.00;49.70;;;;;;5092598;28;966;-38
2022/04/15 01:13:21;;;;;;;;;;;26.00;49.70;;;;;;5091989;28;1005;-39
2022/04/15 01:15:49;;;;;;;;;;;26.00;49.80;;;;;;5092343;28;947;-38
2022/04/15 01:18:15;;;;;;;;;;;25.90;49.70;;;;;;5096954;28;1021;-38
2022/04/15 01:20:44;;;;;;;;;;;25.90;49.70;;;;;;5096652;28;1897;-38
2022/04/15 01:23:12;;;;;;;;;;;25.90;49.60;;;;;;5096713;28;941;-38
2022/04/15 01:25:39;;;;;;;;;;;25.90;49.60;;;;;;5097688;28;1022;-40
2022/04/15 01:28:06;;;;;;;;;;;25.90;49.60;;;;;;5094817;28;984;-39
2022/04/15 01:30:33;;;;;;;;;;;25.90;49.60;;;;;;5095739;28;916;-39
2022/04/15 01:33:01;;;;;;;;;;;25.90;49.60;;;;;;5096604;28;963;-38
2022/04/15 01:35:28;;;;;;;;;;;25.90;49.70;;;;;;5096900;28;1034;-38
2022/04/15 01:37:56;;;;;;;;;;;25.90;49.60;;;;;;5096663;28;987;-40
2022/04/15 01:40:24;;;;;;;;;;;25.90;49.50;;;;;;5096134;28;1909;-39
2022/04/15 01:42:51;;;;;;;;;;;25.90;49.50;;;;;;5096020;28;1018;-37
2022/04/15 01:45:18;;;;;;;;;;;25.90;49.50;;;;;;5095850;28;985;-39
2022/04/15 01:47:45;;;;;;;;;;;25.90;49.60;;;;;;5096210;28;985;-38
2022/04/15 01:50:12;;;;;;;;;;;25.80;49.60;;;;;;5095218;28;1012;-40
2022/04/15 01:52:38;;;;;;;;;;;25.80;49.70;;;;;;5094706;28;1012;-37
2022/04/15 01:55:06;;;;;;;;;;;25.80;49.50;;;;;;5095237;28;826;-39
2022/04/15 01:57:34;;;;;;;;;;;25.80;49.40;;;;;;5095959;28;966;-38
2022/04/15 02:00:00;;;;;;;;;;;25.80;49.40;;;;;;5096168;28;1898;-38
2022/04/15 02:02:27;;;;;;;;;;;25.80;49.50;;;;;;5096508;28;985;-38
2022/04/15 02:04:54;;;;;;;;;;;25.80;49.50;;;;;;5095853;28;1001;-40
2022/04/15 02:07:21;;;;;;;;;;;25.80;49.50;;;;;;5096942;28;924;-38
2022/04/15 02:09:47;;;;;;;;;;;25.80;49.50;;;;;;5096366;28;862;-39
2022/04/15 02:12:14;;;;;;;;;;;25.80;49.40;;;;;;5097082;28;1013;-39
2022/04/15 02:14:42;;;;;;;;;;;25.80;49.50;;;;;;5096528;28;989;-40
2022/04/15 02:17:09;;;;;;;;;;;25.80;49.50;;;;;;5096579;28;952;-39
2022/04/15 02:19:36;;;;;;;;;;;25.80;49.60;;;;;;5096857;28;968;-39
2022/04/15 02:22:03;;;;;;;;;;;25.80;49.60;;;;;;5099430;28;1901;-40
2022/04/15 02:24:29;;;;;;;;;;;25.80;49.60;;;;;;5096299;28;979;-39
2022/04/15 02:26:56;;;;;;;;;;;25.80;49.60;;;;;;5095767;28;963;-38
2022/04/15 02:29:24;;;;;;;;;;;25.70;49.50;;;;;;5096079;28;1015;-39
2022/04/15 02:31:52;;;;;;;;;;;25.80;49.50;;;;;;5095153;28;933;-38
2022/04/15 02:34:19;;;;;;;;;;;25.70;49.40;;;;;;5096741;28;988;-39
2022/04/15 02:36:46;;;;;;;;;;;25.70;49.50;;;;;;5096202;28;955;-42
2022/04/15 02:39:12;;;;;;;;;;;25.70;49.50;;;;;;5096431;28;1179;-39
2022/04/15 02:41:39;;;;;;;;;;;25.70;49.50;;;;;;5095226;28;1906;-38
2022/04/15 02:44:07;;;;;;;;;;;25.70;49.50;;;;;;5096285;28;1022;-42
2022/04/15 02:46:34;;;;;;;;;;;25.70;49.40;;;;;;5096820;28;1024;-39
2022/04/15 02:49:02;;;;;;;;;;;25.70;49.40;;;;;;5096182;28;1035;-40
2022/04/15 02:51:32;;;;;;;;;;;25.70;49.40;;;;;;5095872;28;980;-38
2022/04/15 02:53:59;;;;;;;;;;;25.70;49.50;;;;;;5095555;28;1023;-39
2022/04/15 02:56:26;;;;;;;;;;;25.70;49.40;;;;;;5094635;28;993;-40
2022/04/15 02:58:52;;;;;;;;;;;25.70;49.40;;;;;;5095432;28;980;-41
2022/04/15 03:01:19;;;;;;;;;;;25.70;49.30;;;;;;5095683;28;1906;-43
2022/04/15 03:03:46;;;;;;;;;;;25.70;49.40;;;;;;5095170;28;981;-43
2022/04/15 03:06:14;;;;;;;;;;;25.70;49.30;;;;;;5095635;28;1016;-41
2022/04/15 03:08:41;;;;;;;;;;;25.70;49.30;;;;;;5095750;28;961;-43
2022/04/15 03:11:08;;;;;;;;;;;25.70;49.30;;;;;;5095331;28;948;-42
2022/04/15 03:13:35;;;;;;;;;;;25.70;49.30;;;;;;5095711;28;1436;-44
2022/04/15 03:16:02;;;;;;;;;;;25.70;49.30;;;;;;5096066;28;929;-43
2022/04/15 03:18:29;;;;;;;;;;;25.60;49.20;;;;;;5095629;28;1026;-44
2022/04/15 03:20:55;;;;;;;;;;;25.70;49.30;;;;;;5095937;28;1902;-40
2022/04/15 03:23:23;;;;;;;;;;;25.70;49.20;;;;;;5095902;28;936;-44
2022/04/15 03:25:50;;;;;;;;;;;25.60;49.20;;;;;;5094434;28;948;-44
2022/04/15 03:28:17;;;;;;;;;;;25.70;49.20;;;;;;5094737;28;939;-42
2022/04/15 03:30:43;;;;;;;;;;;25.60;49.10;;;;;;5095572;28;1019;-39
2022/04/15 03:33:10;;;;;;;;;;;25.70;49.20;;;;;;5094837;28;1036;-38
2022/04/15 03:35:37;;;;;;;;;;;25.60;49.10;;;;;;5094651;28;1011;-39
2022/04/15 03:38:03;;;;;;;;;;;25.60;49.20;;;;;;5094529;28;1007;-41
2022/04/15 03:40:32;;;;;;;;;;;25.60;49.10;;;;;;5093665;28;1898;-39
2022/04/15 03:42:59;;;;;;;;;;;25.60;49.10;;;;;;5093669;28;974;-38
2022/04/15 03:45:25;;;;;;;;;;;25.60;49.00;;;;;;5094987;28;1017;-41
2022/04/15 03:47:54;;;;;;;;;;;25.60;49.10;;;;;;5094910;28;983;-38
2022/04/15 03:50:20;;;;;;;;;;;25.60;49.10;;;;;;5094095;28;1035;-37
2022/04/15 03:52:48;;;;;;;;;;;25.60;49.10;;;;;;5093598;28;881;-41
2022/04/15 03:55:16;;;;;;;;;;;25.70;48.90;;;;;;5094350;28;1017;-40
2022/04/15 03:57:44;;;;;;;;;;;25.80;48.80;;;;;;5094413;28;1039;-39
2022/04/15 04:00:12;;;;;;;;;;;25.70;48.90;;;;;;5094301;28;1019;-38
2022/04/15 04:02:39;;;;;;;;;;;25.60;49.00;;;;;;5095142;28;1909;-39
2022/04/15 04:05:08;;;;;;;;;;;25.60;50.20;;;;;;5093546;28;1170;-39
2022/04/15 04:07:35;;;;;;;;;;;25.60;49.10;;;;;;5094393;28;1667;-39
2022/04/15 04:10:01;;;;;;;;;;;25.60;49.20;;;;;;5094751;28;985;-38
2022/04/15 04:12:31;;;;;;;;;;;25.60;49.20;;;;;;5094398;28;1027;-38
2022/04/15 04:14:59;;;;;;;;;;;25.60;49.20;;;;;;5094912;28;893;-37
2022/04/15 04:17:25;;;;;;;;;;;25.60;49.20;;;;;;5093893;28;997;-40
2022/04/15 04:19:52;;;;;;;;;;;25.60;49.20;;;;;;5092017;28;1042;-38
2022/04/15 04:22:19;;;;;;;;;;;25.60;49.10;;;;;;5093150;28;1917;-37
2022/04/15 04:24:45;;;;;;;;;;;25.60;49.20;;;;;;5092422;28;1012;-41
2022/04/15 04:27:12;;;;;;;;;;;25.60;49.10;;;;;;5093366;28;940;-39
2022/04/15 04:29:39;;;;;;;;;;;25.60;49.20;;;;;;5093263;28;997;-38
2022/04/15 04:32:10;;;;;;;;;;;25.50;49.20;;;;;;5093945;28;1016;-38
2022/04/15 04:34:36;;;;;;;;;;;25.60;49.30;;;;;;5094254;28;1119;-42
2022/04/15 04:37:03;;;;;;;;;;;25.50;49.20;;;;;;5094409;28;1008;-38
2022/04/15 04:39:30;;;;;;;;;;;25.50;49.30;;;;;;5094087;28;1008;-40
2022/04/15 04:41:57;;;;;;;;;;;25.50;49.20;;;;;;5093787;28;1902;-40
2022/04/15 04:44:24;;;;;;;;;;;25.50;49.20;;;;;;5093602;28;943;-37
2022/04/15 04:46:51;;;;;;;;;;;25.50;49.20;;;;;;5094189;28;885;-38
2022/04/15 04:49:19;;;;;;;;;;;25.50;49.20;;;;;;5093088;28;1003;-38
2022/04/15 04:51:46;;;;;;;;;;;25.50;49.20;;;;;;5095956;28;976;-36
2022/04/15 04:54:12;;;;;;;;;;;25.50;49.20;;;;;;5099015;28;1027;-37
2022/04/15 04:56:39;;;;;;;;;;;25.60;49.20;;;;;;5097590;28;997;-37
2022/04/15 04:59:06;;;;;;;;;;;25.50;49.10;;;;;;5097281;28;983;-38
2022/04/15 05:01:33;;;;;;;;;;;25.50;49.20;;;;;;5097789;28;1898;-40
2022/04/15 05:04:00;;;;;;;;;;;25.50;49.20;;;;;;5096563;28;1019;-38
2022/04/15 05:06:28;;;;;;;;;;;25.50;49.20;;;;;;5096872;28;1106;-36
2022/04/15 05:08:54;;;;;;;;;;;25.50;49.20;;;;;;5097911;28;940;-38
2022/04/15 05:11:21;;;;;;;;;;;25.50;49.20;;;;;;5098094;28;1000;-37
2022/04/15 05:13:50;;;;;;;;;;;25.50;49.20;;;;;;5096897;28;997;-37
2022/04/15 05:16:16;;;;;;;;;;;25.50;49.20;;;;;;5097435;28;1008;-37
2022/04/15 05:18:43;;;;;;;;;;;25.50;49.20;;;;;;5096256;28;929;-37
2022/04/15 05:21:10;;;;;;;;;;;25.50;49.20;;;;;;5094867;28;1909;-39
2022/04/15 05:23:38;;;;;;;;;;;25.50;49.20;;;;;;5096486;28;936;-41
2022/04/15 05:26:05;;;;;;;;;;;25.50;49.30;;;;;;5095857;28;1079;-38
2022/04/15 05:28:35;;;;;;;;;;;25.50;49.20;;;;;;5095574;28;1031;-38
2022/04/15 05:31:01;;;;;;;;;;;25.50;49.10;;;;;;5095716;28;889;-39
2022/04/15 05:33:28;;;;;;;;;;;25.50;49.20;;;;;;5094807;28;1008;-38
2022/04/15 05:35:55;;;;;;;;;;;25.40;49.20;;;;;;5096205;28;984;-37
2022/04/15 05:38:21;;;;;;;;;;;25.40;49.20;;;;;;5095955;28;1003;-38
2022/04/15 05:40:49;;;;;;;;;;;25.50;49.30;;;;;;5095447;28;1057;-37
2022/04/15 05:43:16;;;;;;;;;;;25.50;49.20;;;;;;5096814;28;1984;-38
2022/04/15 05:45:43;;;;;;;;;;;25.50;49.20;;;;;;5096469;28;1003;-40
2022/04/15 05:48:10;;;;;;;;;;;25.50;49.20;;;;;;5096923;28;1786;-39
2022/04/15 05:50:36;;;;;;;;;;;25.50;49.20;;;;;;5096248;28;988;-37
2022/04/15 05:53:03;;;;;;;;;;;25.50;49.10;;;;;;5094678;28;980;-39
2022/04/15 05:55:30;;;;;;;;;;;25.50;49.10;;;;;;5095220;28;826;-37
2022/04/15 05:57:58;;;;;;;;;;;25.50;49.10;;;;;;5094639;28;961;-39
2022/04/15 06:00:25;;;;;;;;;;;25.50;49.20;;;;;;5095578;28;1717;-40
2022/04/15 06:02:51;;;;;;;;;;;25.40;49.10;;;;;;5094875;28;1902;-40
2022/04/15 06:05:19;;;;;;;;;;;25.40;49.10;;;;;;5095999;28;968;-38
2022/04/15 06:07:46;;;;;;;;;;;25.40;49.10;;;;;;5096114;28;1025;-37
2022/04/15 06:10:12;;;;;;;;;;;25.40;50.20;;;;;;5096974;28;920;-38
2022/04/15 06:15:22;;;;;;;;;;;25.40;49.20;;;;;;5095759;28;1518;-38
2022/04/15 06:17:49;;;;;;;;;;;25.40;49.20;;;;;;5095034;28;1043;-37
2022/04/15 06:20:15;;;;;;;;;;;25.40;49.30;;;;;;5095574;28;668;-38
2022/04/15 06:22:42;;;;;;;;;;;25.40;49.30;;;;;;5094458;28;1966;-40
2022/04/15 06:25:09;;;;;;;;;;;25.40;49.30;;;;;;5094571;28;909;-34
2022/04/15 06:27:36;;;;;;;;;;;25.40;49.40;;;;;;5094562;28;963;-34
2022/04/15 06:30:03;;;;;;;;;;;25.40;49.30;;;;;;5094968;28;1011;-41
2022/04/15 06:32:31;;;;;;;;;;;25.40;49.30;;;;;;5094334;28;1402;-41
2022/04/15 06:34:58;;;;;;;;;;;25.40;49.30;;;;;;5094025;28;1001;-40
2022/04/15 06:37:24;;;;;;;;;;;25.40;49.40;;;;;;5094205;28;1098;-39
2022/04/15 06:39:51;;;;;;;;;;;25.40;49.30;;;;;;5093542;28;1274;-42
2022/04/15 06:42:21;;;;;;;;;;;25.40;49.40;;;;;;5095259;28;1890;-42
2022/04/15 06:44:48;;;;;;;;;;;25.40;49.40;;;;;;5094102;28;1005;-43
2022/04/15 06:47:15;;;;;;;;;;;25.40;49.40;;;;;;5094712;28;1031;-39
2022/04/15 06:49:43;;;;;;;;;;;25.40;49.30;;;;;;5094077;28;1014;-39
2022/04/15 06:52:10;;;;;;;;;;;25.40;49.40;;;;;;5094130;28;979;-43
2022/04/15 06:54:37;;;;;;;;;;;25.40;49.40;;;;;;5092664;28;1028;-41
2022/04/15 06:57:04;;;;;;;;;;;25.40;49.60;;;;;;5091852;28;920;-43
2022/04/15 06:59:31;;;;;;;;;;;25.40;49.60;;;;;;5093420;28;1042;-41
2022/04/15 07:01:59;;;;;;;;;;;25.40;49.40;;;;;;5092252;28;1972;-42
2022/04/15 07:04:26;;;;;;;;;;;25.40;49.40;;;;;;5091082;28;944;-40
2022/04/15 07:06:54;;;;;;;;;;;25.40;49.60;;;;;;5092993;28;936;-41
2022/04/15 07:09:20;;;;;;;;;;;25.40;49.50;;;;;;5094698;28;1042;-41
2022/04/15 07:11:47;;;;;;;;;;;25.40;49.60;;;;;;5096533;28;880;-43
2022/04/15 07:14:14;;;;;;;;;;;25.40;49.50;;;;;;5094389;28;1009;-39
2022/04/15 07:16:41;;;;;;;;;;;25.40;49.50;;;;;;5094830;28;987;-41
2022/04/15 07:19:08;;;;;;;;;;;25.40;49.50;;;;;;5094136;28;980;-42
2022/04/15 07:21:35;;;;;;;;;;;25.40;49.60;;;;;;5093328;28;919;-42
2022/04/15 07:24:03;;;;;;;;;;;25.40;49.50;;;;;;5095508;28;1910;-42
2022/04/15 07:26:30;;;;;;;;;;;25.40;49.80;;;;;;5095708;28;991;-41
2022/04/15 07:28:57;;;;;;;;;;;25.40;49.60;;;;;;5095857;28;994;-42
2022/04/15 07:31:23;;;;;;;;;;;25.40;49.60;;;;;;5095796;28;1015;-43
2022/04/15 07:33:50;;;;;;;;;;;25.40;49.70;;;;;;5091792;28;980;-41
2022/04/15 07:36:43;;;;;;;;;;;25.40;49.60;;;;;;5094643;28;877;-40
2022/04/15 07:39:11;;;;;;;;;;;25.40;49.80;;;;;;5091735;28;1016;-43
2022/04/15 07:41:39;;;;;;;;;;;25.40;49.50;;;;;;5091477;28;865;-42
2022/04/15 07:44:06;;;;;;;;;;;25.40;49.60;;;;;;5093585;28;1905;-42
2022/04/15 07:46:33;;;;;;;;;;;25.40;49.60;;;;;;5093965;28;933;-41
2022/04/15 07:49:00;;;;;;;;;;;25.40;49.60;;;;;;5093190;28;892;-37
2022/04/15 07:51:26;;;;;;;;;;;25.40;49.60;;;;;;5093003;28;1034;-37
2022/04/15 07:53:53;;;;;;;;;;;25.40;49.70;;;;;;5092997;28;1006;-37
2022/04/15 07:56:21;;;;;;;;;;;25.40;49.80;;;;;;5092930;28;935;-37
2022/04/15 07:58:50;;;;;;;;;;;25.40;49.60;;;;;;5093025;28;1007;-34
2022/04/15 08:01:17;;;;;;;;;;;25.40;49.50;;;;;;5093377;28;1007;-37
2022/04/15 08:03:44;;;;;;;;;;;25.40;49.40;;;;;;5093910;28;1994;-37
2022/04/15 08:06:11;;;;;;;;;;;25.40;49.70;;;;;;5092453;28;928;-40
2022/04/15 08:08:38;;;;;;;;;;;25.40;49.60;;;;;;5093559;28;1010;-38
2022/04/15 08:11:05;;;;;;;;;;;25.40;49.80;;;;;;5094416;28;984;-38
2022/04/15 08:13:33;;;;;;;;;;;25.40;49.70;;;;;;5090824;28;1017;-39
2022/04/15 08:16:00;;;;;;;;;;;25.40;49.60;;;;;;5091333;28;995;-41
2022/04/15 08:18:27;;;;;;;;;;;25.40;49.60;;;;;;5092696;28;1030;-37
2022/04/15 08:20:55;;;;;;;;;;;25.40;49.80;;;;;;5092020;28;1857;-38
2022/04/15 08:23:22;;;;;;;;;;;25.30;49.80;;;;;;5092215;28;1902;-40
2022/04/15 08:25:49;;;;;;;;;;;25.40;49.80;;;;;;5092063;28;873;-39
2022/04/15 08:28:16;;;;;;;;;;;25.30;49.80;;;;;;5091584;28;1039;-40
2022/04/15 08:30:44;;;;;;;;;;;25.30;49.80;;;;;;5091065;28;2289;-42
2022/04/15 08:33:11;;;;;;;;;;;25.30;49.80;;;;;;5090281;28;1000;-41
2022/04/15 08:35:38;;;;;;;;;;;25.40;49.80;;;;;;5091255;28;865;-42
2022/04/15 08:38:05;;;;;;;;;;;25.30;49.80;;;;;;5091188;28;991;-41
2022/04/15 08:40:35;;;;;;;;;;;25.30;49.80;;;;;;5092412;28;1096;-42
2022/04/15 08:43:02;;;;;;;;;;;25.30;49.80;;;;;;5090488;28;1901;-40
2022/04/15 08:45:29;;;;;;;;;;;25.30;49.80;;;;;;5091475;28;1008;-40
2022/04/15 08:47:59;;;;;;;;;;;25.30;49.80;;;;;;5090344;28;1003;-43
2022/04/15 08:50:27;;;;;;;;;;;25.30;49.80;;;;;;5091631;28;935;-34
2022/04/15 08:52:54;;;;;;;;;;;25.30;49.80;;;;;;5091494;28;1000;-33
2022/04/15 08:55:21;;;;;;;;;;;25.30;49.80;;;;;;5091026;28;966;-36
2022/04/15 08:57:48;;;;;;;;;;;25.30;49.70;;;;;;5089387;28;968;-36
2022/04/15 09:00:15;;;;;;;;;;;25.30;49.80;;;;;;5089409;28;974;-36
2022/04/15 09:02:41;;;;;;;;;;;25.30;49.70;;;;;;5090022;28;1909;-35
2022/04/15 09:05:10;;;;;;;;;;;25.30;49.50;;;;;;5089369;28;981;-34
2022/04/15 09:07:37;;;;;;;;;;;25.40;49.60;;;;;;5089140;28;1834;-39
2022/04/15 09:10:05;;;;;;;;;;;25.40;49.30;;;;;;5089721;28;988;-41
2022/04/15 09:12:35;;;;;;;;;;;25.40;49.40;;;;;;5089919;28;1022;-38
2022/04/15 09:15:10;;;;;;;;;;;25.40;49.40;;;;;;5089920;28;909;-40
2022/04/15 09:17:37;;;;;;;;;;;25.40;49.70;;;;;;5091027;28;940;-37
2022/04/15 09:20:05;;;;;;;;;;;25.40;49.50;;;;;;5090944;28;1074;-40
2022/04/15 09:22:33;;;;;;;;;;;25.40;49.80;;;;;;5089140;28;1906;-35
2022/04/15 09:25:00;;;;;;;;;;;25.40;49.80;;;;;;5088842;28;1013;-34
2022/04/15 09:27:27;;;;;;;;;;;25.40;49.80;;;;;;5087730;28;1002;-34
2022/04/15 09:29:55;;;;;;;;;;;25.30;49.80;;;;;;5089700;28;913;-33
2022/04/15 09:32:22;;;;;;;;;;;25.40;49.80;;;;;;5088229;28;877;-37
2022/04/15 09:34:55;;;;;;;;;;;25.40;49.60;;;;;;5090184;28;1048;-39
2022/04/15 09:37:23;;;;;;;;;;;25.40;50.70;;;;;;5092350;28;885;-39
2022/04/15 09:40:12;;;;;;;;;;;25.40;49.50;;;;;;5096255;28;1162;-37
2022/04/15 09:42:44;;;;;;;;;;;25.40;49.60;;;;;;5095163;28;1937;-39
2022/04/15 09:45:14;;;;;;;;;;;25.40;49.70;;;;;;5095836;28;1026;-37
2022/04/15 09:47:42;;;;;;;;;;;25.30;49.40;;;;;;5094200;28;1027;-41
2022/04/15 09:50:20;;;;;;;;;;;25.40;49.70;;;;;;5093218;28;966;-34
2022/04/15 09:52:47;;;;;;;;;;;25.40;49.50;;;;;;5093482;28;1018;-33
2022/04/15 09:55:17;;;;;;;;;;;25.40;49.60;;;;;;5095025;28;1046;-37
2022/04/15 09:57:46;;;;;;;;;;;25.40;49.40;;;;;;5092963;28;1214;-39
2022/04/15 10:00:13;;;;;;;;;;;25.60;49.30;;;;;;5093134;28;1118;-37
2022/04/15 10:02:41;;;;;;;;;;;25.50;49.30;;;;;;5093936;28;1921;-34
2022/04/15 10:05:08;;;;;;;;;;;25.50;50.30;;;;;;5094833;28;932;-35
2022/04/15 10:07:35;;;;;;;;;;;25.50;48.80;;;;;;5094574;28;983;-34
2022/04/15 10:10:02;;;;;;;;;;;25.40;48.50;;;;;;5094358;28;1004;-38
2022/04/15 10:12:35;;;;;;;;;;;25.40;48.50;;;;;;5092666;28;955;-38
2022/04/15 10:15:03;;;;;;;;;;;25.40;48.50;;;;;;5093818;28;980;-43
2022/04/15 10:17:29;;;;;;;;;;;25.50;48.60;;;;;;5076716;28;1805;-46
2022/04/15 10:19:57;;;;;;;;;;;25.60;49.80;;;;;;5073786;28;1000;-48
2022/04/15 10:22:24;;;;;;;;;;;25.70;48.20;;;;;;5073999;28;893;-43
2022/04/15 10:24:51;;;;;;;;;;;25.70;47.20;;;;;;5074097;28;2016;-43
2022/04/15 10:27:24;;;;;;;;;;;25.70;46.80;;;;;;5072841;28;960;-43
2022/04/15 10:30:01;;;;;;;;;;;25.80;46.90;;;;;;5073680;28;890;-44
2022/04/15 10:32:28;;;;;;;;;;;25.80;46.60;;;;;;5072299;28;980;-47
2022/04/15 10:34:55;;;;;;;;;;;25.80;47.30;;;;;;5072698;28;1456;-47
2022/04/15 10:37:36;;;;;;;;;;;25.70;46.60;;;;;;5072725;28;961;-47
2022/04/15 10:40:21;;;;;;;;;;;25.80;47.10;;;;;;5072382;28;1387;-48
2022/04/15 10:42:47;;;;;;;;;;;25.80;46.80;;;;;;5072408;28;1905;-48
2022/04/15 10:45:26;;;;;;;;;;;25.80;47.00;;;;;;5072351;28;996;-48
2022/04/15 10:47:58;;;;;;;;;;;25.90;47.00;;;;;;5072842;28;1035;-47
2022/04/15 10:50:27;;;;;;;;;;;25.80;47.20;;;;;;5071010;28;1010;-47
2022/04/15 10:52:53;;;;;;;;;;;25.90;46.70;;;;;;5072433;28;1024;-47
2022/04/15 10:55:20;;;;;;;;;;;25.90;47.10;;;;;;5072419;28;925;-48
2022/04/15 10:57:48;;;;;;;;;;;25.80;47.10;;;;;;5072107;28;997;-47
2022/04/15 11:03:01;;;;;;;;;;;26.00;44.20;;;;;;5069980;28;1914;-46
2022/04/15 11:05:33;;;;;;;;;;;25.90;44.20;;;;;;5070109;28;1465;-47
2022/04/15 11:08:04;;;;;;;;;;;25.80;43.40;;;;;;5069945;28;1016;-47
2022/04/15 11:10:45;;;;;;;;;;;25.80;43.50;;;;;;5070161;28;961;-47
2022/04/15 11:13:27;;;;;;;;;;;25.70;43.60;;;;;;5070734;28;865;-47
2022/04/15 11:15:55;;;;;;;;;;;25.70;43.60;;;;;;5071055;28;932;-47
2022/04/15 11:18:23;;;;;;;;;;;25.80;43.10;;;;;;5069563;28;894;-47
2022/04/15 11:20:50;;;;;;;;;;;25.60;43.90;;;;;;5071041;28;866;-47
2022/04/15 11:23:17;;;;;;;;;;;25.90;43.20;;;;;;5070930;28;1910;-47
2022/04/15 11:25:44;;;;;;;;;;;25.80;43.10;;;;;;5071306;28;934;-47
2022/04/15 11:28:11;;;;;;;;;;;25.60;43.00;;;;;;5070335;28;1215;-47
2022/04/15 11:30:37;;;;;;;;;;;25.60;43.10;;;;;;5070315;28;925;-48
2022/04/15 11:33:05;;;;;;;;;;;25.60;42.50;;;;;;5069197;28;1032;-48
2022/04/15 11:35:34;;;;;;;;;;;25.70;42.20;;;;;;5070500;28;842;-48
2022/04/15 11:38:05;;;;;;;;;;;25.70;42.20;;;;;;5070156;28;873;-47
2022/04/15 11:40:34;;;;;;;;;;;25.70;41.50;;;;;;5069030;28;924;-48
2022/04/15 11:43:01;;;;;;;;;;;25.70;41.90;;;;;;5068635;28;945;-41
2022/04/15 11:45:36;;;;;;;;;;;25.60;42.00;;;;;;5069240;28;1113;-43
2022/04/15 11:48:16;;;;;;;;;;;25.60;42.10;;;;;;5069952;28;1015;-41
2022/04/15 11:50:44;;;;;;;;;;;25.70;42.20;;;;;;5070101;28;968;-40
2022/04/15 11:53:11;;;;;;;;;;;25.70;41.40;;;;;;5068758;28;936;-40
2022/04/15 11:55:47;;;;;;;;;;;25.50;41.80;;;;;;5070241;28;977;-40
2022/04/15 11:58:14;;;;;;;;;;;25.40;42.20;;;;;;5069405;28;897;-41
2022/04/15 12:00:40;;;;;;;;;;;25.50;42.10;;;;;;5069162;28;965;-42
2022/04/15 12:03:07;;;;;;;;;;;25.40;42.00;;;;;;5070721;28;951;-36
2022/04/15 12:05:35;;;;;;;;;;;25.50;43.40;;;;;;5069693;28;2087;-34
2022/04/15 12:08:06;;;;;;;;;;;25.60;42.40;;;;;;5069389;28;1014;-35
2022/04/15 12:10:33;;;;;;;;;;;25.60;41.90;;;;;;5069792;28;912;-34
2022/04/15 12:13:00;;;;;;;;;;;25.60;41.30;;;;;;5071215;28;928;-36
2022/04/15 12:15:28;;;;;;;;;;;25.50;39.70;;;;;;5073217;28;901;-34
2022/04/15 12:17:55;;;;;;;;;;;25.40;39.10;;;;;;5072262;28;1011;-35
2022/04/15 12:20:21;;;;;;;;;;;25.40;38.90;;;;;;5070559;28;898;-35
2022/04/15 12:22:48;;;;;;;;;;;25.20;37.80;;;;;;5069486;28;900;-35
2022/04/15 12:25:17;;;;;;;;;;;25.10;37.30;;;;;;5069354;28;1984;-35
2022/04/15 12:27:45;;;;;;;;;;;25.10;38.30;;;;;;5069933;28;1032;-35
2022/04/15 12:30:10;;;;;;;;;;;25.30;38.30;;;;;;5069447;28;1027;-35
2022/04/15 12:32:39;;;;;;;;;;;25.40;37.70;;;;;;5067533;28;1028;-35
2022/04/15 12:35:10;;;;;;;;;;;25.30;38.50;;;;;;5068220;28;916;-35
2022/04/15 12:37:38;;;;;;;;;;;25.10;39.00;;;;;;5070519;28;1006;-33
2022/04/15 12:40:06;;;;;;;;;;;25.00;39.80;;;;;;5069898;28;1040;-33
2022/04/15 12:42:36;;;;;;;;;;;25.00;39.30;;;;;;5069144;28;1021;-34
2022/04/15 12:45:07;;;;;;;;;;;25.20;38.80;;;;;;5067130;28;1901;-33
2022/04/15 12:47:33;;;;;;;;;;;25.20;37.70;;;;;;5070446;28;973;-35
2022/04/15 12:50:19;;;;;;;;;;;25.00;37.80;;;;;;5067847;28;1012;-35
2022/04/15 12:52:46;;;;;;;;;;;24.80;38.00;;;;;;5069584;28;988;-34
2022/04/15 12:55:12;;;;;;;;;;;25.00;37.90;;;;;;5072141;28;936;-35
2022/04/15 12:57:41;;;;;;;;;;;25.00;37.50;;;;;;5069061;28;1013;-34
2022/04/15 13:00:10;;;;;;;;;;;25.10;38.30;;;;;;5070236;28;830;-35
2022/04/15 13:02:38;;;;;;;;;;;25.10;38.80;;;;;;5069825;28;1006;-34
2022/04/15 13:05:06;;;;;;;;;;;25.20;37.80;;;;;;5070180;28;1966;-38
2022/04/15 13:07:33;;;;;;;;;;;25.20;37.30;;;;;;5069477;28;1063;-43
2022/04/15 13:10:00;;;;;;;;;;;25.20;36.40;;;;;;5069546;28;905;-43
2022/04/15 13:12:27;;;;;;;;;;;25.10;36.50;;;;;;5071341;28;1005;-44
2022/04/15 13:14:55;;;;;;;;;;;24.90;36.50;;;;;;5073810;28;940;-44
2022/04/15 13:17:22;;;;;;;;;;;24.90;37.10;;;;;;5072086;28;865;-44
2022/04/15 13:19:49;;;;;;;;;;;24.90;37.10;;;;;;5073062;28;1166;-44
2022/04/15 13:22:16;;;;;;;;;;;24.60;38.20;;;;;;5072280;28;626;-44
2022/04/15 13:24:43;;;;;;;;;;;24.60;38.50;;;;;;5073129;28;1908;-44
2022/04/15 13:27:10;;;;;;;;;;;24.80;38.20;;;;;;5071518;28;1834;-44
2022/04/15 13:29:37;;;;;;;;;;;24.60;38.20;;;;;;5072487;28;1051;-44
2022/04/15 13:32:07;;;;;;;;;;;24.60;38.70;;;;;;5071032;28;923;-44
2022/04/15 13:34:34;;;;;;;;;;;24.60;38.30;;;;;;5072201;28;1017;-44
2022/04/15 13:37:01;;;;;;;;;;;24.80;38.00;;;;;;5069307;28;980;-41
2022/04/15 13:39:28;;;;;;;;;;;24.70;38.10;;;;;;5071061;28;989;-44
2022/04/15 13:41:58;;;;;;;;;;;24.50;39.00;;;;;;5072565;28;1004;-44
2022/04/15 13:44:25;;;;;;;;;;;24.50;39.20;;;;;;5071699;28;1969;-43
2022/04/15 13:46:52;;;;;;;;;;;24.60;38.70;;;;;;5072630;28;1022;-43
2022/04/15 13:49:24;;;;;;;;;;;24.50;37.90;;;;;;5072665;28;970;-44
2022/04/15 13:51:51;;;;;;;;;;;24.50;37.80;;;;;;5072342;28;1255;-43
2022/04/15 13:57:03;;;;;;;;;;;24.30;38.20;;;;;;5070937;28;802;-44
2022/04/15 13:59:30;;;;;;;;;;;24.30;38.10;;;;;;5071670;28;884;-43
2022/04/15 14:01:59;;;;;;;;;;;24.20;38.40;;;;;;5072086;28;1042;-44
2022/04/15 14:04:27;;;;;;;;;;;24.20;39.50;;;;;;5072363;28;1981;-44
2022/04/15 14:06:54;;;;;;;;;;;24.10;39.40;;;;;;5069828;28;901;-44
2022/04/15 14:09:23;;;;;;;;;;;24.20;39.70;;;;;;5072889;28;1913;-43
2022/04/15 14:11:50;;;;;;;;;;;24.30;40.20;;;;;;5072134;28;1449;-44
2022/04/15 14:14:17;;;;;;;;;;;24.30;40.40;;;;;;5072471;28;1493;-44
2022/04/15 14:16:45;;;;;;;;;;;24.40;40.10;;;;;;5071614;28;862;-43
2022/04/15 14:19:13;;;;;;;;;;;24.50;40.20;;;;;;5071452;28;1017;-42
2022/04/15 14:21:42;;;;;;;;;;;24.40;39.10;;;;;;5069808;28;1001;-45
2022/04/15 14:24:09;;;;;;;;;;;24.40;39.00;;;;;;5070022;28;1894;-47
2022/04/15 14:26:36;;;;;;;;;;;24.60;38.70;;;;;;5070246;28;847;-46
2022/04/15 14:29:04;;;;;;;;;;;24.70;39.40;;;;;;5069584;28;1501;-46
2022/04/15 14:31:31;;;;;;;;;;;24.80;39.60;;;;;;5070587;28;1028;-38
2022/04/15 14:33:58;;;;;;;;;;;24.80;37.90;;;;;;5071576;28;1906;-37
2022/04/15 14:36:27;;;;;;;;;;;24.80;37.70;;;;;;5073154;28;987;-37
2022/04/15 14:38:58;;;;;;;;;;;24.80;37.80;;;;;;5072983;28;1197;-37
2022/04/15 14:41:25;;;;;;;;;;;24.80;36.90;;;;;;5071781;28;934;-37
2022/04/15 14:43:52;;;;;;;;;;;24.80;37.30;;;;;;5073007;28;976;-37
2022/04/15 14:46:19;;;;;;;;;;;24.90;37.50;;;;;;5072613;28;1989;-37
2022/04/15 14:48:48;;;;;;;;;;;24.80;37.60;;;;;;5071516;28;1018;-35